sensor_id;sensor_type;location;lat;lon;timestamp;P1;durP1;ratioP1;P2;durP2;ratioP2
73154;SDS011;66341;52.418;7.382;2023-06-26T00:01:04;1692.61;;;1037.27;;
73154;SDS011;66341;52.418;7.382;2023-06-26T00:03:30;1672.92;;;1025.85;;
73154;SDS011;66341;52.418;7.382;2023-06-26T00:05:57;1714.67;;;1048.85;;
73154;SDS011;66341;52.418;7.382;2023-06-26T00:08:26;1692.93;;;1037.48;;
73154;SDS011;66341;52.418;7.382;2023-06-26T00:10:52;1671.96;;;1026.86;;
73154;SDS011;66341;52.418;7.382;2023-06-26T00:13:19;1660.37;;;1021.87;;
73154;SDS011;66341;52.418;7.382;2023-06-26T00:15:45;1641.96;;;1012.29;;
73154;SDS011;66341;52.418;7.382;2023-06-26T00:18:11;1693.87;;;1037.53;;
73154;SDS011;66341;52.418;7.382;2023-06-26T00:20:36;1691.06;;;1036.92;;
73154;SDS011;66341;52.418;7.382;2023-06-26T00:23:02;1596.05;;;989.11;;
73154;SDS011;66341;52.418;7.382;2023-06-26T00:25:35;1673.55;;;1028.50;;
73154;SDS011;66341;52.418;7.382;2023-06-26T00:28:01;1638.56;;;1010.26;;
73154;SDS011;66341;52.418;7.382;2023-06-26T00:30:27;1667.27;;;1024.93;;
73154;SDS011;66341;52.418;7.382;2023-06-26T00:32:53;1623.62;;;1002.91;;
73154;SDS011;66341;52.418;7.382;2023-06-26T00:35:18;1615.57;;;999.88;;
73154;SDS011;66341;52.418;7.382;2023-06-26T00:37:44;1627.82;;;1006.77;;
73154;SDS011;66341;52.418;7.382;2023-06-26T00:40:10;1628.52;;;1005.86;;
73154;SDS011;66341;52.418;7.382;2023-06-26T00:42:35;1664.69;;;1025.26;;
73154;SDS011;66341;52.418;7.382;2023-06-26T00:45:01;1647.88;;;1018.52;;
73154;SDS011;66341;52.418;7.382;2023-06-26T00:47:27;1696.79;;;1046.27;;
73154;SDS011;66341;52.418;7.382;2023-06-26T00:49:53;1662.84;;;1028.46;;
73154;SDS011;66341;52.418;7.382;2023-06-26T00:52:20;1672.05;;;1030.23;;
73154;SDS011;66341;52.418;7.382;2023-06-26T00:54:46;1667.45;;;1028.54;;
73154;SDS011;66341;52.418;7.382;2023-06-26T00:57:12;1689.63;;;1040.43;;
73154;SDS011;66341;52.418;7.382;2023-06-26T00:59:38;1687.80;;;1037.97;;
73154;SDS011;66341;52.418;7.382;2023-06-26T01:02:03;1655.93;;;1021.53;;
73154;SDS011;66341;52.418;7.382;2023-06-26T01:04:29;1671.51;;;1029.38;;
73154;SDS011;66341;52.418;7.382;2023-06-26T01:06:58;1670.99;;;1030.26;;
73154;SDS011;66341;52.418;7.382;2023-06-26T01:09:25;1714.22;;;1054.49;;
73154;SDS011;66341;52.418;7.382;2023-06-26T01:11:51;1756.17;;;1080.02;;
73154;SDS011;66341;52.418;7.382;2023-06-26T01:14:17;1720.86;;;1060.68;;
73154;SDS011;66341;52.418;7.382;2023-06-26T01:16:44;1693.38;;;1048.21;;
73154;SDS011;66341;52.418;7.382;2023-06-26T01:19:24;1690.20;;;1047.00;;
73154;SDS011;66341;52.418;7.382;2023-06-26T01:21:56;1737.72;;;1071.03;;
73154;SDS011;66341;52.418;7.382;2023-06-26T01:24:24;1719.82;;;1062.98;;
73154;SDS011;66341;52.418;7.382;2023-06-26T01:26:54;1676.70;;;1040.88;;
73154;SDS011;66341;52.418;7.382;2023-06-26T01:29:21;1671.45;;;1039.08;;
73154;SDS011;66341;52.418;7.382;2023-06-26T01:31:50;1629.40;;;1014.00;;
73154;SDS011;66341;52.418;7.382;2023-06-26T01:34:16;1579.44;;;983.94;;
73154;SDS011;66341;52.418;7.382;2023-06-26T01:36:46;1650.23;;;1022.47;;
73154;SDS011;66341;52.418;7.382;2023-06-26T01:39:15;1627.96;;;1012.03;;
73154;SDS011;66341;52.418;7.382;2023-06-26T01:41:41;1620.86;;;1010.99;;
73154;SDS011;66341;52.418;7.382;2023-06-26T01:54:49;1584.00;;;985.43;;
73154;SDS011;66341;52.418;7.382;2023-06-26T01:57:19;1578.39;;;986.06;;
73154;SDS011;66341;52.418;7.382;2023-06-26T01:59:46;1574.59;;;981.59;;
73154;SDS011;66341;52.418;7.382;2023-06-26T02:02:13;1577.73;;;982.95;;
73154;SDS011;66341;52.418;7.382;2023-06-26T02:04:39;1616.65;;;1005.08;;
73154;SDS011;66341;52.418;7.382;2023-06-26T02:07:06;1531.35;;;960.34;;
73154;SDS011;66341;52.418;7.382;2023-06-26T02:09:31;1534.24;;;960.43;;
73154;SDS011;66341;52.418;7.382;2023-06-26T02:11:57;1589.75;;;989.69;;
73154;SDS011;66341;52.418;7.382;2023-06-26T02:14:22;1574.44;;;983.32;;
73154;SDS011;66341;52.418;7.382;2023-06-26T02:16:48;1562.04;;;977.90;;
73154;SDS011;66341;52.418;7.382;2023-06-26T02:19:14;1597.59;;;993.36;;
73154;SDS011;66341;52.418;7.382;2023-06-26T02:21:49;1571.43;;;980.78;;
73154;SDS011;66341;52.418;7.382;2023-06-26T02:24:15;1584.72;;;988.60;;
73154;SDS011;66341;52.418;7.382;2023-06-26T02:26:40;1573.84;;;986.53;;
73154;SDS011;66341;52.418;7.382;2023-06-26T02:29:06;1628.47;;;1022.82;;
73154;SDS011;66341;52.418;7.382;2023-06-26T02:31:32;1625.42;;;1018.99;;
73154;SDS011;66341;52.418;7.382;2023-06-26T02:33:58;1645.64;;;1030.01;;
73154;SDS011;66341;52.418;7.382;2023-06-26T02:36:23;1584.74;;;994.41;;
73154;SDS011;66341;52.418;7.382;2023-06-26T02:38:49;1597.16;;;996.95;;
73154;SDS011;66341;52.418;7.382;2023-06-26T02:41:14;1589.43;;;989.43;;
73154;SDS011;66341;52.418;7.382;2023-06-26T02:43:40;1561.28;;;977.72;;
73154;SDS011;66341;52.418;7.382;2023-06-26T02:46:06;1608.00;;;1003.75;;
73154;SDS011;66341;52.418;7.382;2023-06-26T02:48:31;1558.31;;;978.67;;
73154;SDS011;66341;52.418;7.382;2023-06-26T02:50:57;1554.22;;;976.55;;
73154;SDS011;66341;52.418;7.382;2023-06-26T02:53:23;1569.60;;;982.93;;
73154;SDS011;66341;52.418;7.382;2023-06-26T02:55:48;1567.03;;;980.85;;
73154;SDS011;66341;52.418;7.382;2023-06-26T02:58:14;1562.84;;;977.87;;
73154;SDS011;66341;52.418;7.382;2023-06-26T03:00:39;1571.18;;;980.28;;
73154;SDS011;66341;52.418;7.382;2023-06-26T03:03:07;1559.29;;;975.02;;
73154;SDS011;66341;52.418;7.382;2023-06-26T03:05:32;1544.26;;;966.37;;
73154;SDS011;66341;52.418;7.382;2023-06-26T03:07:58;1559.87;;;976.58;;
73154;SDS011;66341;52.418;7.382;2023-06-26T03:10:24;1577.14;;;991.71;;
73154;SDS011;66341;52.418;7.382;2023-06-26T03:12:49;1572.62;;;996.54;;
73154;SDS011;66341;52.418;7.382;2023-06-26T03:15:15;1521.49;;;963.35;;
73154;SDS011;66341;52.418;7.382;2023-06-26T03:17:40;1555.69;;;978.68;;
73154;SDS011;66341;52.418;7.382;2023-06-26T03:20:06;1560.73;;;979.06;;
73154;SDS011;66341;52.418;7.382;2023-06-26T03:22:32;1559.85;;;979.67;;
73154;SDS011;66341;52.418;7.382;2023-06-26T03:24:59;1560.53;;;981.01;;
73154;SDS011;66341;52.418;7.382;2023-06-26T03:27:24;1530.29;;;964.87;;
73154;SDS011;66341;52.418;7.382;2023-06-26T03:29:51;1551.49;;;978.45;;
73154;SDS011;66341;52.418;7.382;2023-06-26T03:32:17;1595.28;;;1003.80;;
73154;SDS011;66341;52.418;7.382;2023-06-26T03:34:43;1625.17;;;1026.24;;
73154;SDS011;66341;52.418;7.382;2023-06-26T03:37:09;1599.71;;;1010.98;;
73154;SDS011;66341;52.418;7.382;2023-06-26T03:39:34;1608.72;;;1015.01;;
73154;SDS011;66341;52.418;7.382;2023-06-26T03:42:00;1603.31;;;1010.17;;
73154;SDS011;66341;52.418;7.382;2023-06-26T03:44:27;1570.79;;;996.15;;
73154;SDS011;66341;52.418;7.382;2023-06-26T03:46:53;1621.86;;;1023.86;;
73154;SDS011;66341;52.418;7.382;2023-06-26T03:49:19;1598.80;;;1014.48;;
73154;SDS011;66341;52.418;7.382;2023-06-26T03:51:45;1602.66;;;1015.31;;
73154;SDS011;66341;52.418;7.382;2023-06-26T03:54:10;1621.13;;;1026.10;;
73154;SDS011;66341;52.418;7.382;2023-06-26T03:56:36;1603.94;;;1017.86;;
73154;SDS011;66341;52.418;7.382;2023-06-26T03:59:02;1567.81;;;997.81;;
73154;SDS011;66341;52.418;7.382;2023-06-26T04:01:28;1580.92;;;1001.41;;
73154;SDS011;66341;52.418;7.382;2023-06-26T04:03:54;1499.20;;;952.22;;
73154;SDS011;66341;52.418;7.382;2023-06-26T04:06:20;1501.45;;;949.12;;
73154;SDS011;66341;52.418;7.382;2023-06-26T04:08:46;1514.67;;;953.48;;
73154;SDS011;66341;52.418;7.382;2023-06-26T04:11:11;1521.60;;;955.14;;
73154;SDS011;66341;52.418;7.382;2023-06-26T04:13:37;1528.33;;;957.37;;
73154;SDS011;66341;52.418;7.382;2023-06-26T04:16:03;1536.38;;;963.66;;
73154;SDS011;66341;52.418;7.382;2023-06-26T04:18:29;1570.31;;;992.02;;
73154;SDS011;66341;52.418;7.382;2023-06-26T04:21:09;1576.26;;;992.96;;
73154;SDS011;66341;52.418;7.382;2023-06-26T04:23:40;1509.43;;;948.92;;
73154;SDS011;66341;52.418;7.382;2023-06-26T04:26:06;1518.59;;;951.90;;
73154;SDS011;66341;52.418;7.382;2023-06-26T04:28:32;1509.03;;;946.92;;
73154;SDS011;66341;52.418;7.382;2023-06-26T04:30:58;1511.09;;;948.25;;
73154;SDS011;66341;52.418;7.382;2023-06-26T04:33:25;1470.07;;;927.06;;
73154;SDS011;66341;52.418;7.382;2023-06-26T04:35:53;1503.57;;;945.01;;
73154;SDS011;66341;52.418;7.382;2023-06-26T04:38:19;1527.46;;;956.07;;
73154;SDS011;66341;52.418;7.382;2023-06-26T04:40:45;1544.56;;;963.95;;
73154;SDS011;66341;52.418;7.382;2023-06-26T04:43:11;1495.14;;;940.05;;
73154;SDS011;66341;52.418;7.382;2023-06-26T04:45:36;1489.79;;;936.77;;
73154;SDS011;66341;52.418;7.382;2023-06-26T04:48:02;1497.08;;;939.82;;
73154;SDS011;66341;52.418;7.382;2023-06-26T04:50:28;1497.84;;;940.38;;
73154;SDS011;66341;52.418;7.382;2023-06-26T04:52:54;1501.99;;;943.54;;
73154;SDS011;66341;52.418;7.382;2023-06-26T04:55:20;1487.84;;;934.16;;
73154;SDS011;66341;52.418;7.382;2023-06-26T04:57:47;1526.92;;;955.38;;
73154;SDS011;66341;52.418;7.382;2023-06-26T05:00:13;1543.37;;;966.49;;
73154;SDS011;66341;52.418;7.382;2023-06-26T05:02:39;1570.89;;;984.19;;
73154;SDS011;66341;52.418;7.382;2023-06-26T05:05:04;1601.29;;;1000.51;;
73154;SDS011;66341;52.418;7.382;2023-06-26T05:07:30;1587.07;;;992.69;;
73154;SDS011;66341;52.418;7.382;2023-06-26T05:09:55;1632.35;;;1018.39;;
73154;SDS011;66341;52.418;7.382;2023-06-26T05:12:21;1649.03;;;1028.92;;
73154;SDS011;66341;52.418;7.382;2023-06-26T05:14:46;1591.68;;;1000.39;;
73154;SDS011;66341;52.418;7.382;2023-06-26T05:17:13;1628.30;;;1020.50;;
73154;SDS011;66341;52.418;7.382;2023-06-26T05:19:39;1573.67;;;989.60;;
73154;SDS011;66341;52.418;7.382;2023-06-26T05:22:04;1660.64;;;1033.73;;
73154;SDS011;66341;52.418;7.382;2023-06-26T05:24:38;1651.64;;;1030.55;;
73154;SDS011;66341;52.418;7.382;2023-06-26T05:27:04;1637.22;;;1023.45;;
73154;SDS011;66341;52.418;7.382;2023-06-26T05:29:30;1635.39;;;1021.34;;
73154;SDS011;66341;52.418;7.382;2023-06-26T05:31:56;1517.41;;;952.06;;
73154;SDS011;66341;52.418;7.382;2023-06-26T05:34:22;1570.40;;;984.88;;
73154;SDS011;66341;52.418;7.382;2023-06-26T05:36:52;1570.96;;;982.26;;
73154;SDS011;66341;52.418;7.382;2023-06-26T05:39:23;1571.03;;;980.41;;
73154;SDS011;66341;52.418;7.382;2023-06-26T05:41:50;1551.70;;;969.49;;
73154;SDS011;66341;52.418;7.382;2023-06-26T05:44:15;1543.85;;;966.51;;
73154;SDS011;66341;52.418;7.382;2023-06-26T05:46:41;1562.16;;;976.52;;
73154;SDS011;66341;52.418;7.382;2023-06-26T05:49:07;1556.72;;;972.22;;
73154;SDS011;66341;52.418;7.382;2023-06-26T05:51:32;1529.48;;;957.79;;
73154;SDS011;66341;52.418;7.382;2023-06-26T05:53:58;1534.64;;;960.77;;
73154;SDS011;66341;52.418;7.382;2023-06-26T05:56:24;1569.96;;;986.34;;
73154;SDS011;66341;52.418;7.382;2023-06-26T05:58:49;1631.43;;;1017.58;;
73154;SDS011;66341;52.418;7.382;2023-06-26T06:01:17;1684.56;;;1040.97;;
73154;SDS011;66341;52.418;7.382;2023-06-26T06:03:42;1662.40;;;1022.92;;
73154;SDS011;66341;52.418;7.382;2023-06-26T06:06:08;1636.46;;;1009.75;;
73154;SDS011;66341;52.418;7.382;2023-06-26T06:08:34;1570.16;;;973.17;;
73154;SDS011;66341;52.418;7.382;2023-06-26T06:10:59;1562.28;;;967.43;;
73154;SDS011;66341;52.418;7.382;2023-06-26T06:13:25;1562.42;;;967.02;;
73154;SDS011;66341;52.418;7.382;2023-06-26T06:15:51;1531.18;;;950.82;;
73154;SDS011;66341;52.418;7.382;2023-06-26T06:18:16;1551.99;;;960.37;;
73154;SDS011;66341;52.418;7.382;2023-06-26T06:20:42;1599.71;;;983.53;;
73154;SDS011;66341;52.418;7.382;2023-06-26T06:23:07;1612.08;;;991.22;;
73154;SDS011;66341;52.418;7.382;2023-06-26T06:25:33;1608.92;;;989.71;;
73154;SDS011;66341;52.418;7.382;2023-06-26T06:27:58;1610.64;;;989.84;;
73154;SDS011;66341;52.418;7.382;2023-06-26T06:30:24;1564.18;;;965.19;;
73154;SDS011;66341;52.418;7.382;2023-06-26T06:32:49;1608.86;;;988.55;;
73154;SDS011;66341;52.418;7.382;2023-06-26T06:35:18;1568.70;;;967.21;;
73154;SDS011;66341;52.418;7.382;2023-06-26T06:37:44;1583.57;;;976.67;;
73154;SDS011;66341;52.418;7.382;2023-06-26T06:40:10;1621.89;;;994.86;;
73154;SDS011;66341;52.418;7.382;2023-06-26T06:42:36;1587.48;;;975.91;;
73154;SDS011;66341;52.418;7.382;2023-06-26T06:45:02;1612.63;;;989.14;;
73154;SDS011;66341;52.418;7.382;2023-06-26T06:47:28;1622.81;;;994.99;;
73154;SDS011;66341;52.418;7.382;2023-06-26T06:49:53;1573.86;;;969.05;;
73154;SDS011;66341;52.418;7.382;2023-06-26T06:52:20;1610.64;;;986.45;;
73154;SDS011;66341;52.418;7.382;2023-06-26T06:54:55;1584.06;;;973.77;;
73154;SDS011;66341;52.418;7.382;2023-06-26T06:57:26;1560.86;;;961.91;;
73154;SDS011;66341;52.418;7.382;2023-06-26T06:59:52;1584.04;;;975.35;;
73154;SDS011;66341;52.418;7.382;2023-06-26T07:02:17;1615.49;;;990.99;;
73154;SDS011;66341;52.418;7.382;2023-06-26T07:04:43;1592.03;;;979.24;;
73154;SDS011;66341;52.418;7.382;2023-06-26T07:07:09;1599.82;;;984.04;;
73154;SDS011;66341;52.418;7.382;2023-06-26T07:09:35;1625.98;;;996.86;;
73154;SDS011;66341;52.418;7.382;2023-06-26T07:12:01;1608.60;;;987.41;;
73154;SDS011;66341;52.418;7.382;2023-06-26T07:14:28;1592.09;;;978.67;;
73154;SDS011;66341;52.418;7.382;2023-06-26T07:16:53;1577.52;;;971.97;;
73154;SDS011;66341;52.418;7.382;2023-06-26T07:19:19;1598.91;;;983.07;;
73154;SDS011;66341;52.418;7.382;2023-06-26T07:21:44;1587.37;;;975.85;;
73154;SDS011;66341;52.418;7.382;2023-06-26T07:24:11;1556.33;;;960.55;;
73154;SDS011;66341;52.418;7.382;2023-06-26T07:26:37;1596.33;;;981.25;;
73154;SDS011;66341;52.418;7.382;2023-06-26T07:29:04;1571.68;;;969.20;;
73154;SDS011;66341;52.418;7.382;2023-06-26T07:31:30;1606.27;;;986.10;;
73154;SDS011;66341;52.418;7.382;2023-06-26T07:33:55;1561.08;;;963.24;;
73154;SDS011;66341;52.418;7.382;2023-06-26T07:36:21;1573.25;;;969.42;;
73154;SDS011;66341;52.418;7.382;2023-06-26T07:38:46;1565.92;;;966.25;;
73154;SDS011;66341;52.418;7.382;2023-06-26T07:41:12;1613.67;;;989.94;;
73154;SDS011;66341;52.418;7.382;2023-06-26T07:43:37;1622.14;;;993.97;;
73154;SDS011;66341;52.418;7.382;2023-06-26T07:46:03;1595.74;;;980.84;;
73154;SDS011;66341;52.418;7.382;2023-06-26T07:48:28;1598.59;;;982.67;;
73154;SDS011;66341;52.418;7.382;2023-06-26T07:50:54;1579.01;;;972.29;;
73154;SDS011;66341;52.418;7.382;2023-06-26T07:53:19;1554.33;;;957.78;;
73154;SDS011;66341;52.418;7.382;2023-06-26T07:55:45;1549.90;;;955.06;;
73154;SDS011;66341;52.418;7.382;2023-06-26T07:58:10;1595.96;;;980.51;;
73154;SDS011;66341;52.418;7.382;2023-06-26T08:00:36;1549.06;;;955.92;;
73154;SDS011;66341;52.418;7.382;2023-06-26T08:03:01;1543.99;;;953.04;;
73154;SDS011;66341;52.418;7.382;2023-06-26T08:05:27;1554.94;;;958.91;;
73154;SDS011;66341;52.418;7.382;2023-06-26T08:07:52;1552.10;;;957.38;;
73154;SDS011;66341;52.418;7.382;2023-06-26T08:10:18;1562.69;;;961.38;;
73154;SDS011;66341;52.418;7.382;2023-06-26T08:12:43;1580.41;;;971.29;;
73154;SDS011;66341;52.418;7.382;2023-06-26T08:15:11;1617.93;;;994.98;;
73154;SDS011;66341;52.418;7.382;2023-06-26T08:17:37;1457.03;;;906.97;;
73154;SDS011;66341;52.418;7.382;2023-06-26T08:20:03;1456.19;;;906.54;;
73154;SDS011;66341;52.418;7.382;2023-06-26T08:22:30;1426.55;;;892.01;;
73154;SDS011;66341;52.418;7.382;2023-06-26T08:24:56;1460.49;;;909.35;;
73154;SDS011;66341;52.418;7.382;2023-06-26T08:27:21;1425.82;;;891.83;;
73154;SDS011;66341;52.418;7.382;2023-06-26T08:29:47;1477.78;;;917.18;;
73154;SDS011;66341;52.418;7.382;2023-06-26T08:32:13;1478.70;;;920.46;;
73154;SDS011;66341;52.418;7.382;2023-06-26T08:34:38;1425.14;;;890.63;;
73154;SDS011;66341;52.418;7.382;2023-06-26T08:37:04;1483.45;;;920.97;;
73154;SDS011;66341;52.418;7.382;2023-06-26T08:39:29;1479.31;;;918.92;;
73154;SDS011;66341;52.418;7.382;2023-06-26T08:41:55;1459.31;;;909.56;;
73154;SDS011;66341;52.418;7.382;2023-06-26T08:44:21;1454.05;;;906.43;;
73154;SDS011;66341;52.418;7.382;2023-06-26T08:46:50;1486.22;;;922.28;;
73154;SDS011;66341;52.418;7.382;2023-06-26T08:49:29;1471.78;;;914.06;;
73154;SDS011;66341;52.418;7.382;2023-06-26T08:52:06;1454.57;;;906.92;;
73154;SDS011;66341;52.418;7.382;2023-06-26T08:54:36;1500.14;;;932.14;;
73154;SDS011;66341;52.418;7.382;2023-06-26T08:57:07;1523.70;;;944.57;;
73154;SDS011;66341;52.418;7.382;2023-06-26T08:59:33;1546.16;;;957.27;;
73154;SDS011;66341;52.418;7.382;2023-06-26T09:01:59;1535.17;;;951.09;;
73154;SDS011;66341;52.418;7.382;2023-06-26T09:04:24;1535.30;;;949.20;;
73154;SDS011;66341;52.418;7.382;2023-06-26T09:06:50;1543.04;;;954.10;;
73154;SDS011;66341;52.418;7.382;2023-06-26T09:09:15;1495.39;;;928.87;;
73154;SDS011;66341;52.418;7.382;2023-06-26T09:11:41;1547.19;;;954.38;;
73154;SDS011;66341;52.418;7.382;2023-06-26T09:14:07;1520.68;;;942.68;;
73154;SDS011;66341;52.418;7.382;2023-06-26T09:16:41;1529.67;;;945.66;;
73154;SDS011;66341;52.418;7.382;2023-06-26T09:19:10;1489.49;;;926.31;;
73154;SDS011;66341;52.418;7.382;2023-06-26T09:21:38;1525.30;;;944.97;;
73154;SDS011;66341;52.418;7.382;2023-06-26T09:24:05;1520.93;;;942.38;;
73154;SDS011;66341;52.418;7.382;2023-06-26T09:26:31;1488.04;;;925.21;;
73154;SDS011;66341;52.418;7.382;2023-06-26T09:28:57;1504.68;;;934.57;;
73154;SDS011;66341;52.418;7.382;2023-06-26T09:31:23;1510.92;;;938.19;;
73154;SDS011;66341;52.418;7.382;2023-06-26T09:33:49;1511.12;;;939.16;;
73154;SDS011;66341;52.418;7.382;2023-06-26T09:36:22;1513.00;;;939.94;;
73154;SDS011;66341;52.418;7.382;2023-06-26T09:38:50;1551.61;;;960.24;;
73154;SDS011;66341;52.418;7.382;2023-06-26T09:41:18;1514.43;;;940.60;;
73154;SDS011;66341;52.418;7.382;2023-06-26T09:43:48;1519.81;;;944.57;;
73154;SDS011;66341;52.418;7.382;2023-06-26T09:46:15;1516.40;;;942.07;;
73154;SDS011;66341;52.418;7.382;2023-06-26T09:48:40;1506.06;;;936.09;;
73154;SDS011;66341;52.418;7.382;2023-06-26T09:51:06;1510.93;;;939.86;;
73154;SDS011;66341;52.418;7.382;2023-06-26T09:53:31;1540.84;;;953.84;;
73154;SDS011;66341;52.418;7.382;2023-06-26T09:56:05;1551.82;;;959.99;;
73154;SDS011;66341;52.418;7.382;2023-06-26T09:58:30;1511.15;;;939.14;;
73154;SDS011;66341;52.418;7.382;2023-06-26T10:00:56;1538.01;;;954.81;;
73154;SDS011;66341;52.418;7.382;2023-06-26T10:03:22;1556.33;;;961.31;;
73154;SDS011;66341;52.418;7.382;2023-06-26T10:05:47;1516.73;;;940.51;;
73154;SDS011;66341;52.418;7.382;2023-06-26T10:08:13;1516.50;;;942.61;;
73154;SDS011;66341;52.418;7.382;2023-06-26T10:10:40;1525.41;;;945.72;;
73154;SDS011;66341;52.418;7.382;2023-06-26T10:13:11;1507.58;;;937.20;;
73154;SDS011;66341;52.418;7.382;2023-06-26T10:15:40;1520.79;;;943.74;;
73154;SDS011;66341;52.418;7.382;2023-06-26T10:18:10;1505.59;;;934.91;;
73154;SDS011;66341;52.418;7.382;2023-06-26T10:20:37;1524.01;;;944.72;;
73154;SDS011;66341;52.418;7.382;2023-06-26T10:23:04;1583.70;;;974.63;;
73154;SDS011;66341;52.418;7.382;2023-06-26T10:25:34;1516.48;;;941.25;;
73154;SDS011;66341;52.418;7.382;2023-06-26T10:28:02;1513.35;;;938.20;;
73154;SDS011;66341;52.418;7.382;2023-06-26T10:30:31;1553.20;;;958.35;;
73154;SDS011;66341;52.418;7.382;2023-06-26T10:32:58;1513.12;;;939.32;;
73154;SDS011;66341;52.418;7.382;2023-06-26T10:35:25;1513.30;;;939.38;;
73154;SDS011;66341;52.418;7.382;2023-06-26T10:37:51;1508.22;;;937.05;;
73154;SDS011;66341;52.418;7.382;2023-06-26T10:40:26;1513.27;;;941.40;;
73154;SDS011;66341;52.418;7.382;2023-06-26T10:43:06;1515.35;;;941.63;;
73154;SDS011;66341;52.418;7.382;2023-06-26T10:45:33;1515.20;;;941.63;;
73154;SDS011;66341;52.418;7.382;2023-06-26T10:48:00;1519.75;;;943.23;;
73154;SDS011;66341;52.418;7.382;2023-06-26T10:50:27;1562.06;;;963.27;;
73154;SDS011;66341;52.418;7.382;2023-06-26T10:53:09;1556.72;;;962.34;;
73154;SDS011;66341;52.418;7.382;2023-06-26T10:55:36;1537.74;;;951.21;;
73154;SDS011;66341;52.418;7.382;2023-06-26T10:58:02;1529.56;;;949.65;;
73154;SDS011;66341;52.418;7.382;2023-06-26T11:00:28;1520.59;;;945.00;;
73154;SDS011;66341;52.418;7.382;2023-06-26T11:02:53;1534.47;;;954.34;;
73154;SDS011;66341;52.418;7.382;2023-06-26T11:05:26;1618.64;;;999.05;;
73154;SDS011;66341;52.418;7.382;2023-06-26T11:08:08;1588.55;;;982.72;;
73154;SDS011;66341;52.418;7.382;2023-06-26T11:10:54;1559.02;;;967.55;;
73154;SDS011;66341;52.418;7.382;2023-06-26T11:13:25;1560.49;;;965.69;;
73154;SDS011;66341;52.418;7.382;2023-06-26T11:15:51;1563.10;;;965.86;;
73154;SDS011;66341;52.418;7.382;2023-06-26T11:18:17;1548.94;;;959.01;;
73154;SDS011;66341;52.418;7.382;2023-06-26T11:20:42;1559.16;;;963.71;;
73154;SDS011;66341;52.418;7.382;2023-06-26T11:23:08;1534.45;;;951.04;;
73154;SDS011;66341;52.418;7.382;2023-06-26T11:25:34;1520.36;;;943.07;;
73154;SDS011;66341;52.418;7.382;2023-06-26T11:28:02;1507.86;;;936.66;;
73154;SDS011;66341;52.418;7.382;2023-06-26T11:30:28;1527.74;;;947.24;;
73154;SDS011;66341;52.418;7.382;2023-06-26T11:33:01;1543.85;;;956.47;;
73154;SDS011;66341;52.418;7.382;2023-06-26T11:35:28;1555.22;;;959.29;;
73154;SDS011;66341;52.418;7.382;2023-06-26T11:37:56;1550.54;;;958.08;;
73154;SDS011;66341;52.418;7.382;2023-06-26T11:40:22;1523.02;;;945.03;;
73154;SDS011;66341;52.418;7.382;2023-06-26T11:42:55;1534.57;;;951.31;;
73154;SDS011;66341;52.418;7.382;2023-06-26T11:45:20;1520.22;;;943.15;;
73154;SDS011;66341;52.418;7.382;2023-06-26T11:47:46;1569.22;;;968.26;;
73154;SDS011;66341;52.418;7.382;2023-06-26T11:50:15;1534.39;;;950.57;;
73154;SDS011;66341;52.418;7.382;2023-06-26T11:52:41;1573.66;;;970.41;;
73154;SDS011;66341;52.418;7.382;2023-06-26T11:55:07;1546.18;;;955.63;;
73154;SDS011;66341;52.418;7.382;2023-06-26T11:57:32;1581.83;;;975.51;;
73154;SDS011;66341;52.418;7.382;2023-06-26T11:59:58;1537.60;;;950.82;;
73154;SDS011;66341;52.418;7.382;2023-06-26T12:02:35;1546.98;;;956.55;;
73154;SDS011;66341;52.418;7.382;2023-06-26T12:05:00;1531.52;;;947.95;;
73154;SDS011;66341;52.418;7.382;2023-06-26T12:07:27;1561.60;;;961.99;;
73154;SDS011;66341;52.418;7.382;2023-06-26T12:09:53;1532.79;;;948.37;;
73154;SDS011;66341;52.418;7.382;2023-06-26T12:12:20;1540.23;;;950.84;;
73154;SDS011;66341;52.418;7.382;2023-06-26T12:14:47;1533.76;;;947.80;;
73154;SDS011;66341;52.418;7.382;2023-06-26T12:17:13;1502.28;;;932.09;;
73154;SDS011;66341;52.418;7.382;2023-06-26T12:19:42;1546.85;;;953.29;;
73154;SDS011;66341;52.418;7.382;2023-06-26T12:22:09;1497.65;;;928.57;;
73154;SDS011;66341;52.418;7.382;2023-06-26T12:24:36;1542.75;;;952.90;;
73154;SDS011;66341;52.418;7.382;2023-06-26T12:27:08;1546.23;;;954.83;;
73154;SDS011;66341;52.418;7.382;2023-06-26T12:29:35;1523.80;;;944.71;;
73154;SDS011;66341;52.418;7.382;2023-06-26T12:32:02;1554.54;;;960.51;;
73154;SDS011;66341;52.418;7.382;2023-06-26T12:34:28;1580.66;;;974.36;;
73154;SDS011;66341;52.418;7.382;2023-06-26T12:37:00;1573.11;;;970.69;;
73154;SDS011;66341;52.418;7.382;2023-06-26T12:39:27;1565.01;;;965.47;;
73154;SDS011;66341;52.418;7.382;2023-06-26T12:41:54;1557.02;;;959.83;;
73154;SDS011;66341;52.418;7.382;2023-06-26T12:44:21;1548.05;;;956.75;;
73154;SDS011;66341;52.418;7.382;2023-06-26T12:46:47;1566.83;;;966.43;;
73154;SDS011;66341;52.418;7.382;2023-06-26T12:49:14;1593.65;;;978.83;;
73154;SDS011;66341;52.418;7.382;2023-06-26T12:51:40;1561.50;;;964.29;;
73154;SDS011;66341;52.418;7.382;2023-06-26T12:54:06;1570.75;;;968.99;;
73154;SDS011;66341;52.418;7.382;2023-06-26T12:56:31;1562.95;;;966.23;;
73154;SDS011;66341;52.418;7.382;2023-06-26T12:58:57;1570.66;;;970.37;;
73154;SDS011;66341;52.418;7.382;2023-06-26T13:01:23;1594.36;;;983.54;;
73154;SDS011;66341;52.418;7.382;2023-06-26T13:03:50;1599.64;;;985.73;;
73154;SDS011;66341;52.418;7.382;2023-06-26T13:06:18;1601.34;;;986.57;;
73154;SDS011;66341;52.418;7.382;2023-06-26T13:08:44;1571.85;;;972.40;;
73154;SDS011;66341;52.418;7.382;2023-06-26T13:11:09;1586.96;;;981.20;;
73154;SDS011;66341;52.418;7.382;2023-06-26T13:13:35;1576.13;;;975.20;;
73154;SDS011;66341;52.418;7.382;2023-06-26T13:16:00;1549.23;;;957.58;;
73154;SDS011;66341;52.418;7.382;2023-06-26T13:18:27;1541.38;;;954.07;;
73154;SDS011;66341;52.418;7.382;2023-06-26T13:20:52;1539.62;;;952.65;;
73154;SDS011;66341;52.418;7.382;2023-06-26T13:23:18;1585.50;;;975.15;;
73154;SDS011;66341;52.418;7.382;2023-06-26T13:25:44;1577.90;;;973.12;;
73154;SDS011;66341;52.418;7.382;2023-06-26T13:28:10;1571.98;;;970.83;;
73154;SDS011;66341;52.418;7.382;2023-06-26T13:30:35;1574.41;;;974.35;;
73154;SDS011;66341;52.418;7.382;2023-06-26T13:33:01;1577.55;;;973.96;;
73154;SDS011;66341;52.418;7.382;2023-06-26T13:35:26;1594.59;;;983.14;;
73154;SDS011;66341;52.418;7.382;2023-06-26T13:37:51;1608.36;;;991.03;;
73154;SDS011;66341;52.418;7.382;2023-06-26T13:40:17;1539.35;;;954.79;;
73154;SDS011;66341;52.418;7.382;2023-06-26T13:42:42;1563.93;;;966.91;;
73154;SDS011;66341;52.418;7.382;2023-06-26T13:45:09;1570.47;;;968.38;;
73154;SDS011;66341;52.418;7.382;2023-06-26T13:47:35;1589.88;;;978.40;;
73154;SDS011;66341;52.418;7.382;2023-06-26T13:50:03;1605.87;;;985.67;;